sensor_id;sensor_type;location;lat;lon;timestamp;pressure;altitude;pressure_sealevel;temperature;humidity
73700;BME280;62005;50.082;8.988;2022-08-01T00:01:06;100291.34;;;23.85;52.82
73700;BME280;62005;50.082;8.988;2022-08-01T00:03:32;100307.09;;;23.84;53.51
73700;BME280;62005;50.082;8.988;2022-08-01T00:05:57;100302.50;;;23.80;53.23
73700;BME280;62005;50.082;8.988;2022-08-01T00:08:22;100306.69;;;23.77;54.55
73700;BME280;62005;50.082;8.988;2022-08-01T00:10:48;100301.09;;;23.69;54.56
73700;BME280;62005;50.082;8.988;2022-08-01T00:13:13;100301.00;;;23.60;54.46
73700;BME280;62005;50.082;8.988;2022-08-01T00:15:39;100303.59;;;23.57;54.50
73700;BME280;62005;50.082;8.988;2022-08-01T00:18:04;100309.41;;;23.55;55.06
73700;BME280;62005;50.082;8.988;2022-08-01T00:20:29;100307.56;;;23.51;54.89
73700;BME280;62005;50.082;8.988;2022-08-01T00:22:55;100308.19;;;23.48;55.21
73700;BME280;62005;50.082;8.988;2022-08-01T00:25:20;100315.16;;;23.45;55.33
73700;BME280;62005;50.082;8.988;2022-08-01T00:27:45;100312.69;;;23.44;54.31
73700;BME280;62005;50.082;8.988;2022-08-01T00:30:11;100314.97;;;23.42;55.29
73700;BME280;62005;50.082;8.988;2022-08-01T00:32:36;100313.31;;;23.41;55.48
73700;BME280;62005;50.082;8.988;2022-08-01T00:35:02;100304.94;;;23.32;55.56
73700;BME280;62005;50.082;8.988;2022-08-01T00:37:27;100315.06;;;23.37;55.53
73700;BME280;62005;50.082;8.988;2022-08-01T00:39:52;100312.94;;;23.34;55.54
73700;BME280;62005;50.082;8.988;2022-08-01T00:42:18;100308.53;;;23.33;56.19
73700;BME280;62005;50.082;8.988;2022-08-01T00:44:43;100294.50;;;23.15;56.30
73700;BME280;62005;50.082;8.988;2022-08-01T00:47:09;100309.22;;;23.24;55.80
73700;BME280;62005;50.082;8.988;2022-08-01T00:49:34;100308.19;;;23.20;56.26
73700;BME280;62005;50.082;8.988;2022-08-01T00:52:00;100310.44;;;23.18;56.20
73700;BME280;62005;50.082;8.988;2022-08-01T00:54:27;100310.44;;;23.18;56.72
73700;BME280;62005;50.082;8.988;2022-08-01T00:56:54;100310.25;;;23.15;56.48
73700;BME280;62005;50.082;8.988;2022-08-01T00:59:20;100320.44;;;23.14;57.55
73700;BME280;62005;50.082;8.988;2022-08-01T01:01:46;100310.13;;;23.06;56.67
73700;BME280;62005;50.082;8.988;2022-08-01T01:04:11;100303.09;;;23.00;56.97
73700;BME280;62005;50.082;8.988;2022-08-01T01:09:40;100320.03;;;23.07;57.68
73700;BME280;62005;50.082;8.988;2022-08-01T01:12:22;100322.88;;;23.02;57.78
73700;BME280;62005;50.082;8.988;2022-08-01T01:14:56;100316.38;;;22.98;57.49
73700;BME280;62005;50.082;8.988;2022-08-01T01:18:03;100322.50;;;22.95;58.45
73700;BME280;62005;50.082;8.988;2022-08-01T01:20:36;100321.47;;;22.91;57.71
73700;BME280;62005;50.082;8.988;2022-08-01T01:26:00;100306.34;;;22.75;58.47
73700;BME280;62005;50.082;8.988;2022-08-01T01:31:44;100319.00;;;22.76;58.36
73700;BME280;62005;50.082;8.988;2022-08-01T01:34:12;100326.16;;;22.77;58.55
73700;BME280;62005;50.082;8.988;2022-08-01T01:36:39;100320.66;;;22.77;58.16
73700;BME280;62005;50.082;8.988;2022-08-01T01:39:06;100326.16;;;22.77;58.80
73700;BME280;62005;50.082;8.988;2022-08-01T01:41:32;100328.41;;;22.75;58.59
73700;BME280;62005;50.082;8.988;2022-08-01T01:44:01;100322.44;;;22.68;58.81
73700;BME280;62005;50.082;8.988;2022-08-01T01:46:28;100321.41;;;22.64;57.95
73700;BME280;62005;50.082;8.988;2022-08-01T01:48:55;100332.25;;;22.74;58.51
73700;BME280;62005;50.082;8.988;2022-08-01T01:51:22;100330.00;;;22.76;58.17
73700;BME280;62005;50.082;8.988;2022-08-01T01:53:49;100331.66;;;22.77;57.37
73700;BME280;62005;50.082;8.988;2022-08-01T01:56:18;100332.16;;;22.79;57.52
73700;BME280;62005;50.082;8.988;2022-08-01T01:58:45;100330.00;;;22.76;57.60
73700;BME280;62005;50.082;8.988;2022-08-01T02:01:14;100320.66;;;22.77;58.40
73700;BME280;62005;50.082;8.988;2022-08-01T02:03:40;100331.06;;;22.80;59.55
73700;BME280;62005;50.082;8.988;2022-08-01T02:06:07;100322.25;;;22.78;58.12
73700;BME280;62005;50.082;8.988;2022-08-01T02:08:33;100328.91;;;22.77;58.66
73700;BME280;62005;50.082;8.988;2022-08-01T02:11:00;100323.69;;;22.76;58.41
73700;BME280;62005;50.082;8.988;2022-08-01T02:13:58;100324.50;;;22.76;58.81
73700;BME280;62005;50.082;8.988;2022-08-01T02:16:29;100319.59;;;22.73;59.61
73700;BME280;62005;50.082;8.988;2022-08-01T02:18:55;100326.75;;;22.74;59.29
73700;BME280;62005;50.082;8.988;2022-08-01T02:21:26;100328.41;;;22.75;58.38
73700;BME280;62005;50.082;8.988;2022-08-01T02:23:55;100340.44;;;22.79;58.71
73700;BME280;62005;50.082;8.988;2022-08-01T02:26:25;100326.75;;;22.74;58.67
73700;BME280;62005;50.082;8.988;2022-08-01T02:31:20;100331.16;;;22.75;59.37
73700;BME280;62005;50.082;8.988;2022-08-01T02:33:57;100339.63;;;22.79;59.19
73700;BME280;62005;50.082;8.988;2022-08-01T02:36:26;100337.19;;;22.77;59.17
73700;BME280;62005;50.082;8.988;2022-08-01T02:38:54;100331.16;;;22.75;58.91
73700;BME280;62005;50.082;8.988;2022-08-01T02:41:22;100337.19;;;22.77;59.33
73700;BME280;62005;50.082;8.988;2022-08-01T02:43:51;100342.69;;;22.77;59.31
73700;BME280;62005;50.082;8.988;2022-08-01T02:46:33;100332.25;;;22.74;59.81
73700;BME280;62005;50.082;8.988;2022-08-01T02:49:00;100334.50;;;22.72;59.53
73700;BME280;62005;50.082;8.988;2022-08-01T02:51:29;100327.75;;;22.65;59.55
73700;BME280;62005;50.082;8.988;2022-08-01T02:53:56;100335.94;;;22.70;59.50
73700;BME280;62005;50.082;8.988;2022-08-01T02:56:24;100328.56;;;22.65;59.88
73700;BME280;62005;50.082;8.988;2022-08-01T02:59:09;100317.72;;;22.55;59.35
73700;BME280;62005;50.082;8.988;2022-08-01T03:01:37;100336.00;;;22.65;59.44
73700;BME280;62005;50.082;8.988;2022-08-01T03:04:04;100321.22;;;22.61;59.46
73700;BME280;62005;50.082;8.988;2022-08-01T03:06:32;100332.66;;;22.68;59.46
73700;BME280;62005;50.082;8.988;2022-08-01T03:08:58;100338.16;;;22.68;59.95
73700;BME280;62005;50.082;8.988;2022-08-01T03:11:25;100334.00;;;22.70;58.80
73700;BME280;62005;50.082;8.988;2022-08-01T03:13:53;100322.53;;;22.63;59.81
73700;BME280;62005;50.082;8.988;2022-08-01T03:16:21;100329.81;;;22.73;59.33
73700;BME280;62005;50.082;8.988;2022-08-01T03:18:50;100334.50;;;22.72;59.15
73700;BME280;62005;50.082;8.988;2022-08-01T03:21:18;100320.41;;;22.60;59.19
73700;BME280;62005;50.082;8.988;2022-08-01T03:23:45;100326.91;;;22.64;59.02
73700;BME280;62005;50.082;8.988;2022-08-01T03:26:11;100341.13;;;22.71;59.19
73700;BME280;62005;50.082;8.988;2022-08-01T03:28:38;100344.72;;;22.72;59.79
73700;BME280;62005;50.082;8.988;2022-08-01T03:31:04;100333.47;;;22.68;59.71
73700;BME280;62005;50.082;8.988;2022-08-01T03:33:30;100349.41;;;22.71;59.93
73700;BME280;62005;50.082;8.988;2022-08-01T03:35:56;100342.25;;;22.70;59.88
73700;BME280;62005;50.082;8.988;2022-08-01T03:38:25;100337.38;;;22.67;60.28
73700;BME280;62005;50.082;8.988;2022-08-01T03:40:57;100340.22;;;22.62;60.45
73700;BME280;62005;50.082;8.988;2022-08-01T03:43:34;100355.53;;;22.68;60.03
73700;BME280;62005;50.082;8.988;2022-08-01T03:46:06;100341.22;;;22.66;60.20
73700;BME280;62005;50.082;8.988;2022-08-01T03:48:39;100349.19;;;22.68;60.10
73700;BME280;62005;50.082;8.988;2022-08-01T03:51:06;100356.56;;;22.72;59.95
73700;BME280;62005;50.082;8.988;2022-08-01T03:53:33;100359.63;;;22.71;60.36
73700;BME280;62005;50.082;8.988;2022-08-01T03:56:02;100329.28;;;22.57;60.14
73700;BME280;62005;50.082;8.988;2022-08-01T03:58:29;100356.75;;;22.62;60.32
73700;BME280;62005;50.082;8.988;2022-08-01T04:00:55;100344.69;;;22.58;60.70
73700;BME280;62005;50.082;8.988;2022-08-01T04:03:22;100362.16;;;22.67;60.29
73700;BME280;62005;50.082;8.988;2022-08-01T04:05:48;100354.00;;;22.62;60.84
73700;BME280;62005;50.082;8.988;2022-08-01T04:08:13;100352.84;;;22.63;60.46
73700;BME280;62005;50.082;8.988;2022-08-01T04:10:39;100362.75;;;22.64;60.33
73700;BME280;62005;50.082;8.988;2022-08-01T04:13:04;100356.84;;;22.57;60.26
73700;BME280;62005;50.082;8.988;2022-08-01T04:15:30;100361.13;;;22.63;60.14
73700;BME280;62005;50.082;8.988;2022-08-01T04:17:55;100351.31;;;22.57;60.44
73700;BME280;62005;50.082;8.988;2022-08-01T04:20:20;100369.59;;;22.67;60.47
73700;BME280;62005;50.082;8.988;2022-08-01T04:22:46;100365.00;;;22.62;60.62
73700;BME280;62005;50.082;8.988;2022-08-01T04:25:19;100360.00;;;22.64;61.23
73700;BME280;62005;50.082;8.988;2022-08-01T04:27:47;100369.91;;;22.65;60.39
73700;BME280;62005;50.082;8.988;2022-08-01T04:30:14;100367.78;;;22.62;60.74
73700;BME280;62005;50.082;8.988;2022-08-01T04:32:43;100361.81;;;22.55;60.74
73700;BME280;62005;50.082;8.988;2022-08-01T04:35:12;100365.72;;;22.54;61.15
73700;BME280;62005;50.082;8.988;2022-08-01T04:37:42;100377.13;;;22.61;60.96
73700;BME280;62005;50.082;8.988;2022-08-01T04:40:10;100368.94;;;22.56;60.75
73700;BME280;62005;50.082;8.988;2022-08-01T04:42:36;100377.13;;;22.61;60.96
73700;BME280;62005;50.082;8.988;2022-08-01T04:45:01;100371.22;;;22.54;61.09
73700;BME280;62005;50.082;8.988;2022-08-01T04:47:27;100369.00;;;22.51;60.95
73700;BME280;62005;50.082;8.988;2022-08-01T04:49:53;100375.06;;;22.53;61.12
73700;BME280;62005;50.082;8.988;2022-08-01T04:52:21;100375.59;;;22.55;60.97
73700;BME280;62005;50.082;8.988;2022-08-01T04:54:47;100379.38;;;22.59;60.59
73700;BME280;62005;50.082;8.988;2022-08-01T04:57:12;100380.81;;;22.57;61.09
73700;BME280;62005;50.082;8.988;2022-08-01T04:59:42;100379.97;;;22.56;61.24
73700;BME280;62005;50.082;8.988;2022-08-01T05:02:10;100385.09;;;22.63;60.81
73700;BME280;62005;50.082;8.988;2022-08-01T05:04:36;100381.03;;;22.60;61.23
73700;BME280;62005;50.082;8.988;2022-08-01T05:07:02;100385.31;;;22.66;60.85
73700;BME280;62005;50.082;8.988;2022-08-01T05:09:28;100376.53;;;22.64;60.73
73700;BME280;62005;50.082;8.988;2022-08-01T05:11:53;100367.78;;;22.62;61.17
73700;BME280;62005;50.082;8.988;2022-08-01T05:14:19;100378.00;;;22.75;60.79
73700;BME280;62005;50.082;8.988;2022-08-01T05:16:45;100391.91;;;22.97;60.00
73700;BME280;62005;50.082;8.988;2022-08-01T05:19:11;100392.16;;;23.14;59.92
73700;BME280;62005;50.082;8.988;2022-08-01T05:21:36;100388.53;;;23.33;59.35
73700;BME280;62005;50.082;8.988;2022-08-01T05:24:03;100387.81;;;23.54;58.84
73700;BME280;62005;50.082;8.988;2022-08-01T05:26:29;100397.50;;;23.79;58.67
73700;BME280;62005;50.082;8.988;2022-08-01T05:28:54;100401.56;;;23.95;58.47
73700;BME280;62005;50.082;8.988;2022-08-01T05:31:19;100398.47;;;24.10;57.93
73700;BME280;62005;50.082;8.988;2022-08-01T05:33:44;100397.38;;;24.33;57.15
73700;BME280;62005;50.082;8.988;2022-08-01T05:36:10;100404.94;;;24.63;56.85
73700;BME280;62005;50.082;8.988;2022-08-01T05:38:35;100402.72;;;24.87;56.06
73700;BME280;62005;50.082;8.988;2022-08-01T05:41:01;100407.84;;;25.02;55.86
73700;BME280;62005;50.082;8.988;2022-08-01T05:43:26;100414.13;;;25.25;55.05
73700;BME280;62005;50.082;8.988;2022-08-01T05:45:51;100404.22;;;25.32;54.48
73700;BME280;62005;50.082;8.988;2022-08-01T05:48:17;100406.50;;;25.30;54.38
73700;BME280;62005;50.082;8.988;2022-08-01T05:50:42;100400.66;;;25.32;54.43
73700;BME280;62005;50.082;8.988;2022-08-01T05:53:07;100412.22;;;25.34;54.02
73700;BME280;62005;50.082;8.988;2022-08-01T05:55:34;100412.84;;;25.31;53.98
73700;BME280;62005;50.082;8.988;2022-08-01T05:58:00;100397.84;;;25.23;54.21
73700;BME280;62005;50.082;8.988;2022-08-01T06:00:25;100356.16;;;24.89;54.32
73700;BME280;62005;50.082;8.988;2022-08-01T06:02:50;100405.41;;;25.09;54.31
73700;BME280;62005;50.082;8.988;2022-08-01T06:05:16;100414.88;;;25.08;54.44
73700;BME280;62005;50.082;8.988;2022-08-01T06:07:41;100408.13;;;25.01;54.47
73700;BME280;62005;50.082;8.988;2022-08-01T06:10:07;100410.41;;;24.99;54.97
73700;BME280;62005;50.082;8.988;2022-08-01T06:12:33;100416.16;;;25.02;54.77
73700;BME280;62005;50.082;8.988;2022-08-01T06:14:59;100419.16;;;24.92;54.97
73700;BME280;62005;50.082;8.988;2022-08-01T06:17:24;100402.97;;;24.77;55.22
73700;BME280;62005;50.082;8.988;2022-08-01T06:19:50;100411.38;;;24.72;55.50
73700;BME280;62005;50.082;8.988;2022-08-01T06:22:15;100408.13;;;24.70;55.45
73700;BME280;62005;50.082;8.988;2022-08-01T06:24:40;100414.25;;;24.67;56.10
73700;BME280;62005;50.082;8.988;2022-08-01T06:27:05;100420.41;;;24.64;56.19
73700;BME280;62005;50.082;8.988;2022-08-01T06:29:31;100420.03;;;24.57;56.42
73700;BME280;62005;50.082;8.988;2022-08-01T06:31:57;100416.38;;;24.48;56.09
73700;BME280;62005;50.082;8.988;2022-08-01T06:34:23;100423.53;;;24.49;56.10
73700;BME280;62005;50.082;8.988;2022-08-01T06:36:48;100419.50;;;24.33;56.71
73700;BME280;62005;50.082;8.988;2022-08-01T06:39:13;100435.94;;;24.38;56.93
73700;BME280;62005;50.082;8.988;2022-08-01T06:41:39;100431.16;;;24.30;56.88
73700;BME280;62005;50.082;8.988;2022-08-01T06:44:06;100435.06;;;24.29;56.75
73700;BME280;62005;50.082;8.988;2022-08-01T06:46:32;100439.47;;;24.30;56.98
73700;BME280;62005;50.082;8.988;2022-08-01T06:48:57;100440.59;;;24.29;57.61
73700;BME280;62005;50.082;8.988;2022-08-01T06:51:22;100441.81;;;24.23;57.62
73700;BME280;62005;50.082;8.988;2022-08-01T06:53:48;100430.41;;;24.16;57.29
73700;BME280;62005;50.082;8.988;2022-08-01T06:56:13;100447.34;;;24.23;57.07
73700;BME280;62005;50.082;8.988;2022-08-01T06:58:38;100441.34;;;24.21;57.03
73700;BME280;62005;50.082;8.988;2022-08-01T07:01:04;100439.31;;;24.13;57.42
73700;BME280;62005;50.082;8.988;2022-08-01T07:03:31;100450.25;;;24.18;57.55
73700;BME280;62005;50.082;8.988;2022-08-01T07:05:57;100441.56;;;24.11;57.10
73700;BME280;62005;50.082;8.988;2022-08-01T07:08:22;100445.94;;;24.12;57.16
73700;BME280;62005;50.082;8.988;2022-08-01T07:10:47;100441.56;;;24.11;57.30
73700;BME280;62005;50.082;8.988;2022-08-01T07:13:13;100440.03;;;24.05;57.76
73700;BME280;62005;50.082;8.988;2022-08-01T07:15:40;100454.25;;;24.12;57.76
73700;BME280;62005;50.082;8.988;2022-08-01T07:18:06;100451.47;;;24.12;58.12
73700;BME280;62005;50.082;8.988;2022-08-01T07:20:31;100445.94;;;24.12;57.73
73700;BME280;62005;50.082;8.988;2022-08-01T07:22:58;100444.44;;;24.06;58.09
73700;BME280;62005;50.082;8.988;2022-08-01T07:25:23;100440.53;;;24.07;58.05
73700;BME280;62005;50.082;8.988;2022-08-01T07:27:49;100441.88;;;24.09;57.58
73700;BME280;62005;50.082;8.988;2022-08-01T07:30:14;100438.81;;;24.11;57.96
73700;BME280;62005;50.082;8.988;2022-08-01T07:32:40;100435.53;;;24.09;57.68
73700;BME280;62005;50.082;8.988;2022-08-01T07:35:05;100437.56;;;24.17;57.59
73700;BME280;62005;50.082;8.988;2022-08-01T07:37:31;100430.41;;;24.16;57.51
73700;BME280;62005;50.082;8.988;2022-08-01T07:39:56;100437.13;;;24.23;56.89
73700;BME280;62005;50.082;8.988;2022-08-01T07:42:22;100442.72;;;24.32;57.38
73700;BME280;62005;50.082;8.988;2022-08-01T07:44:47;100436.06;;;24.33;57.11
73700;BME280;62005;50.082;8.988;2022-08-01T07:47:12;100429.44;;;24.34;57.30
73700;BME280;62005;50.082;8.988;2022-08-01T07:49:39;100434.22;;;24.42;56.61
73700;BME280;62005;50.082;8.988;2022-08-01T07:52:04;100446.41;;;24.63;57.21
73700;BME280;62005;50.082;8.988;2022-08-01T07:54:31;100439.13;;;24.67;56.63
73700;BME280;62005;50.082;8.988;2022-08-01T07:56:56;100437.38;;;24.71;56.19
73700;BME280;62005;50.082;8.988;2022-08-01T07:59:22;100430.63;;;24.77;56.21
73700;BME280;62005;50.082;8.988;2022-08-01T08:01:49;100445.94;;;24.83;56.50
73700;BME280;62005;50.082;8.988;2022-08-01T08:04:15;100422.44;;;24.72;56.34
73700;BME280;62005;50.082;8.988;2022-08-01T08:06:40;100433.06;;;24.79;55.94
73700;BME280;62005;50.082;8.988;2022-08-01T08:09:06;100439.78;;;24.86;55.83
73700;BME280;62005;50.082;8.988;2022-08-01T08:11:32;100433.25;;;24.82;55.62
73700;BME280;62005;50.082;8.988;2022-08-01T08:13:57;100433.25;;;24.82;55.42
73700;BME280;62005;50.082;8.988;2022-08-01T08:16:22;100409.75;;;24.71;55.00
73700;BME280;62005;50.082;8.988;2022-08-01T08:18:48;100435.63;;;24.97;55.19
73700;BME280;62005;50.082;8.988;2022-08-01T08:21:13;100438.63;;;25.09;55.40
73700;BME280;62005;50.082;8.988;2022-08-01T08:23:39;100437.56;;;25.27;54.80
73700;BME280;62005;50.082;8.988;2022-08-01T08:26:22;100430.50;;;25.35;54.92
73700;BME280;62005;50.082;8.988;2022-08-01T08:28:49;100436.72;;;25.49;54.30
73700;BME280;62005;50.082;8.988;2022-08-01T08:31:15;100430.53;;;25.52;53.58
73700;BME280;62005;50.082;8.988;2022-08-01T08:33:40;100439.91;;;25.64;53.56
73700;BME280;62005;50.082;8.988;2022-08-01T08:36:05;100428.03;;;25.73;53.82
73700;BME280;62005;50.082;8.988;2022-08-01T08:38:31;100445.19;;;25.92;53.29
73700;BME280;62005;50.082;8.988;2022-08-01T08:40:56;100434.81;;;26.06;52.18
73700;BME280;62005;50.082;8.988;2022-08-01T08:43:22;100429.28;;;26.06;52.01
73700;BME280;62005;50.082;8.988;2022-08-01T08:45:50;100444.94;;;26.19;52.72
73700;BME280;62005;50.082;8.988;2022-08-01T08:48:16;100444.78;;;26.24;52.75
73700;BME280;62005;50.082;8.988;2022-08-01T08:50:43;100436.81;;;26.31;52.15
73700;BME280;62005;50.082;8.988;2022-08-01T08:53:09;100445.28;;;26.43;52.26
73700;BME280;62005;50.082;8.988;2022-08-01T08:55:35;100443.66;;;26.42;51.46
73700;BME280;62005;50.082;8.988;2022-08-01T08:58:00;100449.88;;;26.56;51.88
73700;BME280;62005;50.082;8.988;2022-08-01T09:00:30;100444.16;;;26.69;51.13
73700;BME280;62005;50.082;8.988;2022-08-01T09:02:56;100445.00;;;26.70;51.13
73700;BME280;62005;50.082;8.988;2022-08-01T09:05:23;100445.66;;;26.67;50.97
73700;BME280;62005;50.082;8.988;2022-08-01T09:07:52;100456.75;;;26.67;51.07
73700;BME280;62005;50.082;8.988;2022-08-01T09:10:20;100443.66;;;26.59;50.91
73700;BME280;62005;50.082;8.988;2022-08-01T09:13:09;100458.66;;;26.58;50.81
73700;BME280;62005;50.082;8.988;2022-08-01T09:15:48;100455.41;;;26.56;50.80
73700;BME280;62005;50.082;8.988;2022-08-01T09:18:35;100459.16;;;26.51;50.46
73700;BME280;62005;50.082;8.988;2022-08-01T09:21:16;100467.78;;;26.50;50.89
73700;BME280;62005;50.082;8.988;2022-08-01T09:23:44;100463.41;;;26.49;51.22
73700;BME280;62005;50.082;8.988;2022-08-01T09:26:16;100440.06;;;26.41;50.93
73700;BME280;62005;50.082;8.988;2022-08-01T09:28:43;100464.88;;;26.55;51.28
73700;BME280;62005;50.082;8.988;2022-08-01T09:31:12;100452.16;;;26.54;51.21
73700;BME280;62005;50.082;8.988;2022-08-01T09:33:55;100449.38;;;26.62;50.42
73700;BME280;62005;50.082;8.988;2022-08-01T09:36:24;100452.31;;;26.66;50.85
73700;BME280;62005;50.082;8.988;2022-08-01T09:38:50;100452.03;;;26.67;51.07
73700;BME280;62005;50.082;8.988;2022-08-01T09:41:16;100452.97;;;26.71;51.08
73700;BME280;62005;50.082;8.988;2022-08-01T09:43:48;100454.94;;;26.79;51.04
73700;BME280;62005;50.082;8.988;2022-08-01T09:46:14;100442.97;;;27.05;51.17
73700;BME280;62005;50.082;8.988;2022-08-01T09:49:00;100450.28;;;27.35;50.27
73700;BME280;62005;50.082;8.988;2022-08-01T09:51:30;100421.63;;;27.51;49.74
73700;BME280;62005;50.082;8.988;2022-08-01T09:53:57;100442.06;;;27.84;49.17
73700;BME280;62005;50.082;8.988;2022-08-01T09:56:22;100401.50;;;27.83;48.40
73700;BME280;62005;50.082;8.988;2022-08-01T09:58:58;100445.59;;;28.23;47.34
73700;BME280;62005;50.082;8.988;2022-08-01T10:01:24;100430.34;;;28.29;47.33
73700;BME280;62005;50.082;8.988;2022-08-01T10:06:35;100434.97;;;28.66;45.18
73700;BME280;62005;50.082;8.988;2022-08-01T10:09:02;100442.69;;;28.81;45.13
73700;BME280;62005;50.082;8.988;2022-08-01T10:11:28;100435.06;;;28.90;44.54
73700;BME280;62005;50.082;8.988;2022-08-01T10:13:56;100433.94;;;29.03;44.40
73700;BME280;62005;50.082;8.988;2022-08-01T10:16:23;100421.66;;;29.04;44.18
73700;BME280;62005;50.082;8.988;2022-08-01T10:18:49;100420.16;;;29.06;44.01
73700;BME280;62005;50.082;8.988;2022-08-01T10:21:16;100411.53;;;28.99;44.52
73700;BME280;62005;50.082;8.988;2022-08-01T10:23:42;100430.03;;;29.04;44.60
73700;BME280;62005;50.082;8.988;2022-08-01T10:26:10;100415.41;;;29.07;43.92
73700;BME280;62005;50.082;8.988;2022-08-01T10:28:38;100426.59;;;29.19;43.74
73700;BME280;62005;50.082;8.988;2022-08-01T10:31:05;100422.22;;;29.30;43.94
73700;BME280;62005;50.082;8.988;2022-08-01T10:33:32;100422.44;;;29.37;44.09
73700;BME280;62005;50.082;8.988;2022-08-01T10:35:57;100425.25;;;29.49;43.49
73700;BME280;62005;50.082;8.988;2022-08-01T10:38:23;100406.91;;;29.48;41.38
73700;BME280;62005;50.082;8.988;2022-08-01T10:40:49;100428.13;;;29.40;41.74
73700;BME280;62005;50.082;8.988;2022-08-01T10:43:16;100409.44;;;29.29;43.08
73700;BME280;62005;50.082;8.988;2022-08-01T10:45:42;100413.75;;;29.38;42.14
73700;BME280;62005;50.082;8.988;2022-08-01T10:48:27;100428.03;;;29.49;41.05
73700;BME280;62005;50.082;8.988;2022-08-01T10:50:58;100427.94;;;29.58;41.32
73700;BME280;62005;50.082;8.988;2022-08-01T10:53:26;100414.59;;;29.63;41.53
73700;BME280;62005;50.082;8.988;2022-08-01T10:55:59;100419.72;;;29.73;40.14
73700;BME280;62005;50.082;8.988;2022-08-01T11:04:03;100404.63;;;29.74;41.28
73700;BME280;62005;50.082;8.988;2022-08-01T11:08:51;100394.84;;;29.92;40.57
73700;BME280;62005;50.082;8.988;2022-08-01T11:11:17;100393.22;;;29.91;40.78
73700;BME280;62005;50.082;8.988;2022-08-01T11:14:06;100399.81;;;29.99;40.36
73700;BME280;62005;50.082;8.988;2022-08-01T11:16:35;100373.00;;;29.94;40.51
73700;BME280;62005;50.082;8.988;2022-08-01T11:19:03;100387.38;;;30.08;40.87
73700;BME280;62005;50.082;8.988;2022-08-01T11:27:40;100393.16;;;30.39;40.08
73700;BME280;62005;50.082;8.988;2022-08-01T11:32:55;100391.69;;;30.57;40.73
73700;BME280;62005;50.082;8.988;2022-08-01T11:35:21;100387.47;;;30.36;40.16
73700;BME280;62005;50.082;8.988;2022-08-01T11:37:50;100342.50;;;30.13;40.22
73700;BME280;62005;50.082;8.988;2022-08-01T11:40:20;100379.84;;;30.48;40.47
73700;BME280;62005;50.082;8.988;2022-08-01T11:42:47;100380.75;;;30.52;40.72
73700;BME280;62005;50.082;8.988;2022-08-01T11:45:13;100379.47;;;30.50;38.90
73700;BME280;62005;50.082;8.988;2022-08-01T11:50:33;100370.50;;;30.56;39.67
73700;BME280;62005;50.082;8.988;2022-08-01T11:53:01;100368.69;;;30.48;38.40
73700;BME280;62005;50.082;8.988;2022-08-01T11:55:28;100374.03;;;30.41;38.79
73700;BME280;62005;50.082;8.988;2022-08-01T11:58:05;100379.94;;;30.24;38.61
73700;BME280;62005;50.082;8.988;2022-08-01T12:00:31;100367.59;;;30.13;39.08
73700;BME280;62005;50.082;8.988;2022-08-01T12:03:05;100368.19;;;30.07;38.69
73700;BME280;62005;50.082;8.988;2022-08-01T12:05:32;100363.44;;;30.07;39.43
73700;BME280;62005;50.082;8.988;2022-08-01T12:08:00;100366.25;;;29.95;38.09
73700;BME280;62005;50.082;8.988;2022-08-01T12:10:28;100361.78;;;29.67;38.44
73700;BME280;62005;50.082;8.988;2022-08-01T12:13:01;100357.19;;;29.62;39.35
73700;BME280;62005;50.082;8.988;2022-08-01T12:15:38;100356.50;;;29.65;39.53
73700;BME280;62005;50.082;8.988;2022-08-01T12:18:06;100355.84;;;29.68;38.54
73700;BME280;62005;50.082;8.988;2022-08-01T12:20:34;100343.75;;;29.64;38.61
73700;BME280;62005;50.082;8.988;2022-08-01T12:23:02;100339.13;;;29.68;39.01
73700;BME280;62005;50.082;8.988;2022-08-01T12:25:28;100343.53;;;29.81;38.75
73700;BME280;62005;50.082;8.988;2022-08-01T12:27:54;100338.66;;;29.78;40.09
73700;BME280;62005;50.082;8.988;2022-08-01T12:30:21;100337.91;;;29.93;40.37
73700;BME280;62005;50.082;8.988;2022-08-01T12:32:51;100357.16;;;30.10;40.44
73700;BME280;62005;50.082;8.988;2022-08-01T12:35:20;100349.59;;;30.23;39.80
73700;BME280;62005;50.082;8.988;2022-08-01T12:37:50;100348.91;;;30.26;39.29
73700;BME280;62005;50.082;8.988;2022-08-01T12:40:22;100348.41;;;30.36;38.55
73700;BME280;62005;50.082;8.988;2022-08-01T12:42:50;100341.38;;;30.42;37.35
73700;BME280;62005;50.082;8.988;2022-08-01T12:45:23;100335.44;;;30.43;37.59
73700;BME280;62005;50.082;8.988;2022-08-01T12:47:50;100336.81;;;30.49;37.42
73700;BME280;62005;50.082;8.988;2022-08-01T12:50:19;100339.25;;;30.51;38.07
73700;BME280;62005;50.082;8.988;2022-08-01T12:52:46;100318.25;;;30.41;37.43
73700;BME280;62005;50.082;8.988;2022-08-01T12:55:14;100343.50;;;30.60;37.52
73700;BME280;62005;50.082;8.988;2022-08-01T12:57:43;100344.31;;;30.61;37.75
73700;BME280;62005;50.082;8.988;2022-08-01T13:00:24;100332.34;;;30.60;36.99
73700;BME280;62005;50.082;8.988;2022-08-01T13:03:07;100325.06;;;30.56;35.66
73700;BME280;62005;50.082;8.988;2022-08-01T13:08:19;100330.31;;;30.45;37.09
73700;BME280;62005;50.082;8.988;2022-08-01T13:10:49;100317.34;;;30.37;37.47
73700;BME280;62005;50.082;8.988;2022-08-01T13:13:17;100334.19;;;30.41;37.33
73700;BME280;62005;50.082;8.988;2022-08-01T13:15:45;100329.22;;;30.34;36.26
73700;BME280;62005;50.082;8.988;2022-08-01T13:18:30;100333.88;;;30.30;36.97
73700;BME280;62005;50.082;8.988;2022-08-01T13:21:16;100321.00;;;30.26;36.42
73700;BME280;62005;50.082;8.988;2022-08-01T13:24:02;100324.16;;;30.24;36.72
73700;BME280;62005;50.082;8.988;2022-08-01T13:26:51;100315.66;;;30.21;36.83
73700;BME280;62005;50.082;8.988;2022-08-01T13:29:30;100319.22;;;30.21;36.98
73700;BME280;62005;50.082;8.988;2022-08-01T13:31:57;100316.72;;;30.16;37.04